Portada
METAR-TAF:

METAR-TAF

Aeroports :

Kokshetau, Kazakhstan

latitud: 53-19-48N, longitud: 069-35-48E, altitud: 270 m

Observació

L'informe es va fer fa 5 hores i 54 minuts, a les 14:00 UTC
Vent 10 kt del Sud, variant entre Nord/Nord-Est i Sud/Sud-Oest
Temperatura -2°C
Humitat 86%
Pressió 1019 hPa
Visibilitat 10 km o més
sense núvols per sota de 1500 mi sense presència de cumulonimbus.

METAR: UACK 211400Z 19005MPS 030V200 CAVOK M02/M04 Q1019 R20/090060 NOSIG RMK QFE741/0988

Hora: 01:54 (19:54 UTC)

Pronòstic

L'informe es va fer fa 8 hores i 54 minuts, a les 11:00 UTC
Pronòstic vàlid del 21 a les 12 UTC al 21 a les 21 UTC
Vent 8 kt del Sud
Visibilitat 10 km o més
Núvols disperses a una alçada de 4000 ft
Núvols disperses a una alçada de 10000 ft
Temporalment
l' 21 a les 12 UTC al 21 a les 18 UTC
Vent 12 kt del Sud/Sud-Oest

TAF: UACK 211100Z 2112/2121 17004MPS 9999 SCT040 SCT100 TEMPO 2112/2118 20006MPS

Observacions i pronòstics meteorològics de més de 4000 aeroports (METAR i TAF).

Les estacions disponibles són els punts grocs i vermells al mapa.

Posi el ratolí al punt desitjat per veure el nom de l'estació.

Feu clic per veure les observacions i els pronòstics meteorològics.

Per canviar el mapa: feu clic els botons verds amb una creu de color negre per apropar; al botó verd amb un guió per allunyar la imatge; o en les fletxes verdes per a mapes adjacents.


METAR-TAF: